Time;durP1;ratioP1;P1;durP2;ratioP2;P2;SDS_P1;SDS_P2;PMS_P1;PMS_P2;Temp;Humidity;BMP_temperature;BMP_pressure;BME280_temperature;BME280_humidity;BME280_pressure;Samples;Min_cycle;Max_cycle;Signal;HPM_P1;HPM_P2
2022/02/02 00:00:02;;;;;;;5.93;2.70;;;5.70;99.90;;;;;;5070582;28;20218;-82
2022/02/02 00:02:36;;;;;;;15.00;3.58;;;5.70;99.90;;;;;;5079989;28;20227;-80
2022/02/02 00:05:16;;;;;;;17.65;4.05;;;5.80;99.90;;;;;;5077921;28;20921;-80
2022/02/02 00:07:52;;;;;;;16.77;3.90;;;5.90;99.90;;;;;;5067058;28;20239;-81
2022/02/02 00:10:39;;;;;;;24.15;5.82;;;5.90;99.90;;;;;;5063769;28;20203;-80
2022/02/02 00:13:10;;;;;;;23.02;4.75;;;6.00;99.90;;;;;;5063507;28;20584;-81
2022/02/02 00:15:48;;;;;;;19.67;4.82;;;6.00;99.90;;;;;;5069033;28;20272;-80
2022/02/02 00:18:42;;;;;;;21.27;4.93;;;6.00;99.90;;;;;;5064746;28;20216;-80
2022/02/02 00:21:07;;;;;;;21.30;4.70;;;6.10;99.90;;;;;;5057525;28;20204;-80
2022/02/02 00:23:40;;;;;;;9.98;4.50;;;6.20;99.90;;;;;;5055376;28;20232;-79
2022/02/02 00:26:11;;;;;;;19.90;5.05;;;6.30;99.90;;;;;;5072089;28;20222;-81
2022/02/02 00:28:43;;;;;;;12.77;4.15;;;6.30;99.90;;;;;;5070869;28;20232;-81
2022/02/02 00:31:15;;;;;;;17.75;4.55;;;6.40;99.90;;;;;;5044814;28;20225;-80
2022/02/02 00:33:46;;;;;;;14.32;3.65;;;6.40;99.90;;;;;;5072487;28;20229;-81
2022/02/02 00:36:18;;;;;;;13.35;3.42;;;6.40;99.90;;;;;;5074793;28;20217;-82
2022/02/02 00:38:46;;;;;;;17.48;3.58;;;6.50;99.90;;;;;;5079658;28;20193;-82
2022/02/02 00:41:14;;;;;;;14.43;5.38;;;6.50;99.90;;;;;;5081343;28;20236;-80
2022/02/02 00:43:44;;;;;;;18.60;5.68;;;6.50;99.90;;;;;;5071962;28;20227;-80
2022/02/02 00:46:10;;;;;;;14.07;4.05;;;6.50;99.90;;;;;;5079841;28;20207;-81
2022/02/02 00:48:37;;;;;;;15.93;4.30;;;6.60;99.90;;;;;;5083624;28;20241;-82
2022/02/02 00:51:04;;;;;;;19.52;4.18;;;6.60;99.90;;;;;;5079350;28;20220;-82
2022/02/02 00:53:31;;;;;;;17.80;4.07;;;6.50;99.90;;;;;;5081771;28;20210;-82
2022/02/02 00:55:59;;;;;;;10.48;3.65;;;6.70;99.90;;;;;;5075665;28;20228;-80
2022/02/02 00:58:26;;;;;;;11.60;3.63;;;6.50;99.90;;;;;;5067222;28;20208;-78
2022/02/02 01:00:53;;;;;;;12.27;3.30;;;6.50;99.90;;;;;;5066848;28;20271;-82
2022/02/02 01:03:20;;;;;;;10.02;3.83;;;6.60;99.90;;;;;;5063219;28;20288;-80
2022/02/02 01:05:47;;;;;;;12.63;2.90;;;6.50;99.90;;;;;;5068179;28;20218;-80
2022/02/02 01:08:41;;;;;;;11.73;4.30;;;6.50;99.90;;;;;;5074095;28;20264;-80
2022/02/02 01:11:31;;;;;;;16.45;3.55;;;6.50;99.90;;;;;;5065989;28;20201;-79
2022/02/02 01:19:31;;;;;;;16.98;3.83;;;6.40;99.90;;;;;;5072127;28;20191;-80
2022/02/02 01:22:14;;;;;;;19.27;4.38;;;6.50;99.90;;;;;;5071518;28;20199;-80
2022/02/02 01:27:49;;;;;;;16.85;4.70;;;6.50;99.90;;;;;;5063376;28;20230;-79
2022/02/02 01:30:16;;;;;;;19.20;5.65;;;6.50;99.90;;;;;;5068439;28;20205;-79
2022/02/02 01:32:43;;;;;;;18.02;5.80;;;6.60;99.90;;;;;;5076658;28;20324;-81
2022/02/02 01:35:14;;;;;;;23.92;5.18;;;6.60;99.90;;;;;;5083608;28;20231;-81
2022/02/02 01:37:41;;;;;;;23.77;4.97;;;6.60;99.90;;;;;;5078202;28;20260;-80
2022/02/02 01:40:17;;;;;;;23.88;5.28;;;6.60;99.90;;;;;;5070016;28;20202;-82
2022/02/02 01:42:52;;;;;;;22.10;6.50;;;6.60;99.90;;;;;;5060063;28;20235;-80
2022/02/02 01:45:22;;;;;;;43.40;7.25;;;6.60;99.90;;;;;;5065755;28;20249;-82
2022/02/02 01:48:01;;;;;;;27.83;5.30;;;6.50;99.90;;;;;;5066603;28;20260;-79
2022/02/02 01:50:40;;;;;;;23.27;5.25;;;6.70;99.90;;;;;;5065183;28;20205;-79
2022/02/02 01:53:16;;;;;;;18.15;5.00;;;6.70;99.90;;;;;;5064209;28;20228;-80
2022/02/02 01:55:43;;;;;;;21.67;5.60;;;6.80;99.90;;;;;;5074189;28;20242;-79
2022/02/02 01:58:29;;;;;;;32.35;8.40;;;6.70;99.90;;;;;;5066549;28;20637;-78
2022/02/02 02:00:56;;;;;;;26.65;5.50;;;6.60;99.90;;;;;;5062279;28;20246;-79
2022/02/02 02:03:23;;;;;;;19.35;5.03;;;6.60;99.90;;;;;;5062699;28;20773;-80
2022/02/02 02:05:50;;;;;;;24.35;5.60;;;6.50;99.90;;;;;;5061357;28;20288;-80
2022/02/02 02:08:18;;;;;;;17.33;4.13;;;6.60;99.90;;;;;;5062019;28;20284;-79
2022/02/02 02:10:45;;;;;;;20.50;4.47;;;6.50;99.90;;;;;;5063032;28;20212;-80
2022/02/02 02:13:19;;;;;;;26.90;5.50;;;6.40;99.90;;;;;;5059019;28;20332;-81
2022/02/02 02:15:48;;;;;;;24.48;5.60;;;6.50;99.90;;;;;;5060418;28;20214;-79
2022/02/02 02:18:15;;;;;;;27.13;5.97;;;6.40;99.90;;;;;;5061606;28;20240;-80
2022/02/02 02:20:42;;;;;;;11.50;4.65;;;6.40;99.90;;;;;;5067310;28;20208;-79
2022/02/02 02:23:10;;;;;;;15.65;4.85;;;6.40;99.90;;;;;;5062724;28;20640;-79
2022/02/02 02:25:42;;;;;;;23.50;4.75;;;6.40;99.90;;;;;;5061788;28;20248;-79
2022/02/02 02:28:19;;;;;;;19.90;4.22;;;6.40;99.90;;;;;;5062771;28;20231;-81
2022/02/02 02:30:50;;;;;;;25.67;5.00;;;6.50;99.90;;;;;;5069895;28;20204;-79
2022/02/02 02:33:39;;;;;;;26.42;4.00;;;6.50;99.90;;;;;;5059741;28;20225;-80
2022/02/02 02:39:32;;;;;;;7.47;3.40;;;6.40;99.90;;;;;;5104914;27;20512;-76
2022/02/02 02:56:01;;;;;;;20.63;4.50;;;6.40;99.90;;;;;;5023101;28;20196;-77
2022/02/02 02:58:48;;;;;;;25.35;4.97;;;6.50;99.90;;;;;;5073675;28;20219;-79
2022/02/02 03:01:24;;;;;;;19.95;4.53;;;6.40;99.90;;;;;;5078375;28;20209;-75
2022/02/02 03:31:30;;;;;;;23.27;5.55;;;6.60;99.90;;;;;;5082850;28;20228;-76
2022/02/02 03:50:38;;;;;;;31.67;6.00;;;6.40;99.90;;;;;;5075136;28;20270;-75
2022/02/02 03:56:03;;;;;;;28.20;7.40;;;6.50;99.90;;;;;;5073102;28;20202;-76
2022/02/02 03:58:37;;;;;;;14.63;5.28;;;6.50;99.90;;;;;;5079123;28;20233;-77
2022/02/02 04:01:33;;;;;;;19.60;4.63;;;6.60;99.90;;;;;;5076172;28;20207;-77
2022/02/02 04:04:14;;;;;;;20.90;5.70;;;6.60;99.90;;;;;;5069986;28;20181;-75
2022/02/02 04:06:56;;;;;;;17.38;5.50;;;6.70;99.90;;;;;;5070539;28;20203;-77
2022/02/02 04:09:23;;;;;;;20.80;5.72;;;6.60;99.90;;;;;;5069617;28;20212;-76
2022/02/02 04:11:57;;;;;;;18.50;5.80;;;6.60;99.90;;;;;;5068282;28;20241;-77
2022/02/02 04:17:43;;;;;;;25.73;5.80;;;6.70;99.90;;;;;;5036393;28;20181;-76
2022/02/02 04:55:56;;;;;;;30.33;6.32;;;7.10;99.90;;;;;;5073781;28;20437;-74
2022/02/02 04:58:35;;;;;;;22.67;5.30;;;7.10;99.90;;;;;;5068510;28;20441;-75
2022/02/02 05:06:37;;;;;;;26.67;5.80;;;7.10;99.90;;;;;;5068242;28;20315;-75
2022/02/02 05:09:16;;;;;;;21.50;5.75;;;7.10;99.90;;;;;;5067608;28;20193;-74
2022/02/02 05:17:34;;;;;;;25.25;5.97;;;7.10;99.90;;;;;;5063484;28;20280;-73
2022/02/02 05:20:45;;;;;;;16.50;6.40;;;7.10;99.90;;;;;;5058903;28;20191;-75
2022/02/02 05:43:05;;;;;;;26.55;6.07;;;7.20;99.90;;;;;;5042976;28;20238;-80
2022/02/02 05:53:31;;;;;;;18.98;5.03;;;7.20;99.90;;;;;;5020710;28;20255;-79
2022/02/02 05:56:03;;;;;;;19.73;4.25;;;7.20;99.90;;;;;;5037343;28;20225;-81
2022/02/02 05:58:33;;;;;;;26.63;5.45;;;7.30;99.90;;;;;;5041292;28;20210;-80
2022/02/02 06:01:01;;;;;;;21.77;6.32;;;7.20;99.90;;;;;;5044347;28;20199;-78
2022/02/02 06:03:43;;;;;;;22.70;4.97;;;7.30;99.90;;;;;;5040633;28;20220;-80
2022/02/02 06:06:11;;;;;;;23.48;5.20;;;7.20;99.90;;;;;;5032002;28;20183;-81
2022/02/02 06:08:43;;;;;;;28.33;4.68;;;7.30;99.90;;;;;;5050813;28;20219;-82
2022/02/02 06:11:16;;;;;;;21.13;4.30;;;7.20;99.90;;;;;;5026844;28;20263;-81
2022/02/02 06:13:44;;;;;;;8.30;3.60;;;7.20;99.90;;;;;;5076890;22;20217;-76
2022/02/02 06:16:12;;;;;;;22.25;4.65;;;7.20;99.90;;;;;;5091811;28;20238;-77
2022/02/02 06:18:40;;;;;;;15.15;4.32;;;7.20;99.90;;;;;;5091666;28;20205;-76
2022/02/02 06:21:10;;;;;;;14.27;3.60;;;7.20;99.90;;;;;;5093967;28;20192;-74
2022/02/02 06:23:39;;;;;;;25.70;4.80;;;7.20;99.90;;;;;;5089512;28;20256;-74
2022/02/02 06:26:17;;;;;;;10.93;3.95;;;7.30;99.90;;;;;;5100579;28;20191;-74
2022/02/02 06:28:46;;;;;;;12.50;4.53;;;7.30;99.90;;;;;;5091954;28;20185;-74
2022/02/02 06:31:15;;;;;;;11.98;3.67;;;7.30;99.90;;;;;;5088925;28;20210;-74
2022/02/02 06:33:43;;;;;;;13.55;5.05;;;7.30;99.90;;;;;;5092984;28;20268;-73
2022/02/02 06:36:12;;;;;;;14.00;4.95;;;7.20;99.90;;;;;;5073906;28;20207;-74
2022/02/02 06:38:41;;;;;;;18.23;3.35;;;7.10;99.90;;;;;;5096635;28;20209;-73
2022/02/02 06:41:09;;;;;;;15.88;4.72;;;7.00;99.90;;;;;;5091590;28;20201;-74
2022/02/02 06:43:37;;;;;;;18.13;5.60;;;7.00;99.90;;;;;;5100785;28;20200;-73
2022/02/02 06:46:06;;;;;;;16.83;3.35;;;7.00;99.90;;;;;;5094147;28;20206;-70
2022/02/02 06:48:34;;;;;;;23.40;6.55;;;7.00;99.90;;;;;;5091100;28;20197;-69
2022/02/02 06:51:10;;;;;;;11.85;3.88;;;7.10;99.90;;;;;;5094331;28;20217;-68
2022/02/02 06:53:54;;;;;;;15.82;3.95;;;7.00;99.90;;;;;;5090006;28;20193;-68
2022/02/02 06:56:38;;;;;;;18.80;4.97;;;7.00;99.90;;;;;;5083560;28;20302;-73
2022/02/02 06:59:22;;;;;;;14.13;4.50;;;6.90;99.90;;;;;;5090291;28;20222;-71
2022/02/02 07:02:03;;;;;;;10.90;3.80;;;6.90;99.90;;;;;;5069317;28;20306;-73
2022/02/02 07:08:03;;;;;;;21.85;4.50;;;6.70;99.90;;;;;;5158442;27;20656;-72
2022/02/02 07:10:45;;;;;;;18.33;3.75;;;6.60;99.90;;;;;;5120575;28;20218;-73
2022/02/02 07:13:25;;;;;;;13.50;4.82;;;6.60;99.90;;;;;;5117432;28;20218;-72
2022/02/02 07:16:07;;;;;;;12.10;3.70;;;6.70;99.90;;;;;;5124787;28;20187;-72
2022/02/02 07:18:46;;;;;;;13.98;4.82;;;6.60;99.90;;;;;;5116573;28;20192;-73
2022/02/02 07:21:26;;;;;;;20.23;4.55;;;6.60;99.90;;;;;;5122938;28;20193;-74
2022/02/02 07:24:13;;;;;;;17.77;5.45;;;6.60;99.90;;;;;;5119601;28;20183;-71
2022/02/02 07:27:07;;;;;;;23.95;5.95;;;6.60;99.90;;;;;;5119827;28;20217;-73
2022/02/02 07:29:43;;;;;;;19.13;4.10;;;6.60;99.90;;;;;;5120940;28;20188;-70
2022/02/02 07:32:13;;;;;;;18.13;5.72;;;6.50;99.90;;;;;;5125542;28;20311;-72
2022/02/02 07:34:56;;;;;;;17.15;4.10;;;6.60;99.90;;;;;;5124366;28;20308;-75
2022/02/02 07:37:31;;;;;;;18.02;3.97;;;6.70;99.90;;;;;;5124975;28;20185;-77
2022/02/02 07:40:03;;;;;;;16.08;5.05;;;6.80;99.90;;;;;;5112173;28;20271;-74
2022/02/02 07:42:33;;;;;;;20.77;3.50;;;6.90;99.90;;;;;;5120981;28;20278;-74
2022/02/02 07:45:05;;;;;;;17.95;3.75;;;6.90;99.90;;;;;;5121899;28;20176;-76
2022/02/02 07:47:36;;;;;;;10.18;3.42;;;6.90;99.90;;;;;;5123603;28;20213;-73
2022/02/02 07:50:06;;;;;;;16.52;3.30;;;7.20;99.90;;;;;;5113924;28;20214;-74
2022/02/02 07:52:33;;;;;;;19.65;4.82;;;7.60;99.90;;;;;;5116636;28;20426;-75
2022/02/02 07:55:04;;;;;;;16.98;4.00;;;7.90;99.90;;;;;;5123623;28;20212;-72
2022/02/02 07:57:32;;;;;;;20.15;4.18;;;8.10;99.90;;;;;;5123089;28;20182;-73
2022/02/02 08:00:04;;;;;;;12.40;4.10;;;8.10;99.90;;;;;;5123398;28;20204;-71
2022/02/02 08:02:44;;;;;;;19.35;3.58;;;8.30;99.90;;;;;;5122756;28;20263;-71
2022/02/02 08:05:13;;;;;;;13.27;3.55;;;8.30;99.90;;;;;;5123940;28;20178;-72
2022/02/02 08:07:45;;;;;;;7.88;5.18;;;8.60;99.90;;;;;;5123421;28;20240;-72
2022/02/02 08:10:17;;;;;;;17.23;4.40;;;8.70;99.90;;;;;;5111334;28;20350;-71
2022/02/02 08:12:48;;;;;;;8.82;3.97;;;8.60;99.90;;;;;;5122630;28;20244;-72
2022/02/02 08:15:17;;;;;;;16.67;4.10;;;8.60;99.90;;;;;;5122694;28;20227;-71
2022/02/02 08:17:45;;;;;;;9.40;4.15;;;8.70;99.90;;;;;;5118004;28;20191;-73
2022/02/02 08:20:13;;;;;;;12.05;3.63;;;8.60;99.90;;;;;;5095019;28;20266;-72
2022/02/02 08:22:40;;;;;;;16.58;4.05;;;8.60;99.90;;;;;;5101359;28;20206;-70
2022/02/02 08:25:08;;;;;;;12.20;2.78;;;8.50;99.90;;;;;;5109753;28;20190;-70
2022/02/02 08:27:40;;;;;;;8.25;2.40;;;8.40;99.90;;;;;;5109292;28;20219;-73
2022/02/02 08:30:10;;;;;;;11.93;3.35;;;8.70;99.90;;;;;;5105081;28;20262;-72
2022/02/02 08:32:43;;;;;;;11.45;2.60;;;8.80;99.90;;;;;;5109663;28;20220;-72
2022/02/02 08:35:11;;;;;;;6.25;3.05;;;8.90;99.90;;;;;;5100655;28;20198;-72
2022/02/02 08:37:41;;;;;;;15.52;3.63;;;8.90;99.90;;;;;;5106996;28;20196;-73
2022/02/02 08:40:22;;;;;;;12.98;5.18;;;8.60;99.90;;;;;;5107409;28;20200;-72
2022/02/02 08:42:51;;;;;;;6.68;2.85;;;8.40;99.90;;;;;;5101509;28;20205;-71
2022/02/02 08:45:22;;;;;;;10.63;3.20;;;8.20;99.90;;;;;;5109310;28;20202;-72
2022/02/02 08:47:56;;;;;;;27.63;4.68;;;8.20;99.90;;;;;;5108941;28;20370;-73
2022/02/02 08:50:30;;;;;;;12.48;3.33;;;8.10;99.90;;;;;;5107567;28;20457;-70
2022/02/02 08:53:03;;;;;;;13.13;3.88;;;8.30;99.90;;;;;;5119685;28;20314;-72
2022/02/02 08:58:31;;;;;;;20.73;3.10;;;8.50;99.90;;;;;;5119641;28;20189;-72
2022/02/02 09:00:59;;;;;;;22.08;4.50;;;8.50;99.90;;;;;;5107964;28;20218;-72
2022/02/02 09:06:16;;;;;;;14.88;3.70;;;8.60;99.90;;;;;;5047520;28;20208;-72
2022/02/02 09:08:45;;;;;;;16.35;3.53;;;8.60;99.90;;;;;;5103011;28;20253;-71
2022/02/02 09:25:07;;;;;;;14.93;4.00;;;9.00;99.90;;;;;;5108288;28;20228;-72
2022/02/02 09:35:52;;;;;;;14.23;3.92;;;9.50;99.90;;;;;;5101297;28;20186;-73
2022/02/02 09:38:19;;;;;;;10.73;3.15;;;9.70;99.90;;;;;;5108273;28;20194;-71
2022/02/02 09:43:37;;;;;;;12.63;3.42;;;9.90;99.90;;;;;;5090900;28;20232;-71
2022/02/02 09:46:10;;;;;;;23.40;5.22;;;9.80;99.90;;;;;;5108183;28;20228;-72
2022/02/02 09:48:45;;;;;;;9.10;3.45;;;10.10;99.90;;;;;;5105262;28;20362;-72
2022/02/02 09:51:18;;;;;;;14.20;4.63;;;10.80;99.90;;;;;;5106041;28;20236;-71
2022/02/02 09:53:54;;;;;;;19.27;3.95;;;12.00;99.90;;;;;;5116594;28;20189;-71
2022/02/02 09:56:36;;;;;;;15.35;3.85;;;12.40;99.90;;;;;;5103639;28;20204;-72
2022/02/02 09:59:19;;;;;;;12.13;4.18;;;13.60;99.10;;;;;;5107332;28;20211;-72
2022/02/02 10:02:16;;;;;;;11.57;3.05;;;14.30;95.20;;;;;;5107864;28;20270;-72
2022/02/02 10:05:01;;;;;;;16.58;3.72;;;15.00;93.70;;;;;;5107747;28;20192;-73
2022/02/02 10:07:49;;;;;;;15.15;3.38;;;14.50;92.10;;;;;;5106849;28;20273;-72
2022/02/02 10:13:19;;;;;;;11.13;2.97;;;15.00;91.90;;;;;;5098708;28;20250;-70
2022/02/02 10:15:47;;;;;;;11.05;3.92;;;15.30;91.00;;;;;;5105366;28;20442;-71
2022/02/02 10:18:18;;;;;;;13.00;3.85;;;15.50;90.80;;;;;;5107770;28;20389;-73
2022/02/02 10:20:50;;;;;;;12.43;3.03;;;15.20;90.20;;;;;;5106934;28;20206;-73
2022/02/02 10:23:25;;;;;;;13.05;3.50;;;15.00;91.10;;;;;;5108749;28;20195;-72
2022/02/02 10:25:57;;;;;;;16.45;5.40;;;14.80;91.20;;;;;;5115239;28;20189;-72
2022/02/02 10:28:26;;;;;;;15.20;2.95;;;13.10;93.70;;;;;;5109176;28;20205;-71
2022/02/02 10:30:55;;;;;;;14.65;3.92;;;11.70;98.70;;;;;;5106548;28;20254;-71
2022/02/02 10:33:25;;;;;;;17.25;4.20;;;10.80;99.90;;;;;;5106863;28;20246;-73
2022/02/02 10:35:54;;;;;;;10.55;4.03;;;10.10;99.90;;;;;;5104300;28;20186;-73
2022/02/02 10:38:39;;;;;;;12.43;3.25;;;9.70;99.90;;;;;;5107483;28;20288;-71
2022/02/02 10:41:16;;;;;;;10.55;2.85;;;9.50;99.90;;;;;;5106008;28;20193;-73
2022/02/02 10:43:52;;;;;;;8.48;2.83;;;9.40;99.90;;;;;;5102395;28;20190;-73
2022/02/02 10:46:26;;;;;;;11.07;3.63;;;9.50;99.90;;;;;;5107488;28;20236;-73
2022/02/02 10:49:02;;;;;;;10.57;3.35;;;10.30;99.90;;;;;;5107593;28;20239;-73
2022/02/02 10:51:38;;;;;;;14.95;3.50;;;10.90;99.90;;;;;;5106562;28;20258;-71
2022/02/02 10:56:57;;;;;;;8.90;2.80;;;11.30;99.90;;;;;;5106941;28;20176;-70
2022/02/02 10:59:43;;;;;;;9.95;3.90;;;11.10;99.90;;;;;;5106400;28;20227;-74
2022/02/02 11:07:49;;;;;;;15.15;4.13;;;10.80;99.90;;;;;;5050753;28;20417;-71
2022/02/02 11:10:18;;;;;;;15.23;3.22;;;10.70;99.90;;;;;;5107150;28;20188;-73
2022/02/02 11:12:49;;;;;;;18.05;3.70;;;10.40;99.90;;;;;;5105570;28;20468;-73
2022/02/02 11:15:31;;;;;;;13.98;2.90;;;10.20;99.90;;;;;;5108434;28;20179;-72
2022/02/02 11:18:08;;;;;;;14.55;4.38;;;10.20;99.90;;;;;;5107160;28;20258;-73
2022/02/02 11:20:38;;;;;;;16.13;3.40;;;10.10;99.90;;;;;;5105305;28;20197;-71
2022/02/02 11:23:07;;;;;;;11.95;3.33;;;9.90;99.90;;;;;;5121815;28;20409;-72
2022/02/02 11:25:42;;;;;;;10.63;2.17;;;9.80;99.90;;;;;;5104065;28;20187;-73
2022/02/02 11:28:25;;;;;;;20.20;5.13;;;9.50;99.90;;;;;;5111873;28;20189;-73
2022/02/02 11:31:06;;;;;;;8.98;3.70;;;9.30;99.90;;;;;;5114709;28;20253;-72
2022/02/02 11:33:46;;;;;;;27.67;4.03;;;9.20;99.90;;;;;;5105851;28;20186;-72
2022/02/02 11:38:43;;;;;;;14.67;3.93;;;9.10;99.90;;;;;;5127364;22;20299;-80
2022/02/02 11:41:40;;;;;;;9.02;3.90;;;9.50;99.90;;;;;;5096734;28;20209;-81
2022/02/02 11:44:14;;;;;;;13.85;3.60;;;9.50;99.90;;;;;;5112830;28;20210;-79
2022/02/02 11:46:49;;;;;;;12.77;3.90;;;9.40;99.90;;;;;;5116224;28;20183;-79
2022/02/02 11:49:18;;;;;;;11.10;3.05;;;9.40;99.90;;;;;;5116934;28;20224;-80
2022/02/02 11:51:47;;;;;;;13.52;3.42;;;9.40;99.90;;;;;;5117649;28;20230;-80
2022/02/02 11:54:16;;;;;;;13.75;3.95;;;9.30;99.90;;;;;;5120633;28;20233;-79
2022/02/02 11:57:26;;;;;;;9.85;2.65;;;9.20;99.90;;;;;;5121670;28;20179;-81
2022/02/02 12:00:01;;;;;;;15.88;2.78;;;8.90;99.90;;;;;;5120719;28;20209;-80
2022/02/02 12:02:48;;;;;;;9.68;2.90;;;8.80;99.90;;;;;;5120952;28;20170;-79
2022/02/02 12:05:26;;;;;;;12.70;3.25;;;8.70;99.90;;;;;;5120585;28;20196;-80
2022/02/02 12:08:09;;;;;;;9.85;2.15;;;8.70;99.90;;;;;;5118461;28;20224;-82
2022/02/02 12:10:56;;;;;;;10.68;3.10;;;8.70;99.90;;;;;;5117583;28;20469;-81
2022/02/02 12:19:31;;;;;;;20.95;3.35;;;8.90;99.90;;;;;;5114673;28;20197;-82
2022/02/02 12:36:01;;;;;;;7.95;3.83;;;8.70;99.90;;;;;;5107642;28;20255;-81
2022/02/02 12:47:12;;;;;;;9.90;3.30;;;9.20;99.90;;;;;;5105270;28;20669;-80
2022/02/02 12:49:57;;;;;;;16.30;3.15;;;9.20;99.90;;;;;;5104815;28;20217;-81
2022/02/02 12:58:01;;;;;;;8.18;2.67;;;9.30;99.90;;;;;;5102188;28;20268;-79
2022/02/02 13:00:38;;;;;;;12.10;2.75;;;9.30;99.90;;;;;;5105136;28;20217;-82
2022/02/02 13:03:07;;;;;;;10.23;2.72;;;9.50;99.90;;;;;;5111843;28;20221;-79
2022/02/02 13:05:37;;;;;;;9.40;4.05;;;9.50;98.90;;;;;;5111918;28;20273;-81
2022/02/02 13:08:05;;;;;;;13.38;3.08;;;9.40;99.60;;;;;;5106736;28;20277;-81
2022/02/02 13:10:33;;;;;;;10.50;2.83;;;9.40;98.80;;;;;;5103963;28;20202;-81
2022/02/02 13:13:08;;;;;;;11.30;2.50;;;9.40;98.30;;;;;;5103014;28;20289;-81
2022/02/02 13:15:42;;;;;;;8.95;2.58;;;9.50;99.30;;;;;;5104120;28;20258;-81
2022/02/02 13:18:18;;;;;;;6.65;1.75;;;9.30;99.90;;;;;;5105315;28;20238;-81
2022/02/02 13:20:55;;;;;;;14.50;2.72;;;9.00;99.90;;;;;;5106126;28;20205;-81
2022/02/02 13:23:29;;;;;;;5.72;2.42;;;8.90;99.90;;;;;;5103422;28;20691;-80
2022/02/02 13:26:00;;;;;;;10.30;2.15;;;8.70;99.90;;;;;;5095839;28;20575;-79
2022/02/02 13:28:49;;;;;;;11.55;3.63;;;8.60;99.90;;;;;;5104975;28;20221;-80
2022/02/02 13:31:37;;;;;;;6.55;2.40;;;8.60;99.90;;;;;;5112638;28;20234;-81
2022/02/02 13:34:14;;;;;;;11.23;3.90;;;8.60;99.90;;;;;;5096853;28;20233;-81
2022/02/02 13:36:53;;;;;;;7.68;2.67;;;8.70;99.90;;;;;;5102650;28;20217;-80
2022/02/02 13:42:42;;;;;;;6.18;3.28;;;8.90;99.90;;;;;;5095140;28;20198;-82
2022/02/02 13:48:27;;;;;;;8.80;4.10;;;9.20;99.90;;;;;;5103440;28;20297;-80
2022/02/02 13:54:06;;;;;;;7.57;3.03;;;9.10;99.90;;;;;;5067153;28;20218;-81
2022/02/02 14:00:21;;;;;;;24.40;4.40;;;8.90;99.90;;;;;;5097658;28;20191;-82
2022/02/02 14:06:03;;;;;;;11.23;2.90;;;8.80;99.90;;;;;;5099380;28;20198;-81
2022/02/02 14:25:56;;;;;;;8.13;2.90;;;9.20;99.90;;;;;;5091390;28;20228;-81
2022/02/02 14:31:13;;;;;;;12.20;4.43;;;9.10;99.90;;;;;;5098116;28;20319;-79
2022/02/02 14:33:42;;;;;;;7.97;3.72;;;8.90;99.90;;;;;;5094896;28;20789;-79
2022/02/02 14:36:12;;;;;;;11.35;3.22;;;8.80;99.90;;;;;;5098481;28;20206;-80
2022/02/02 14:38:46;;;;;;;14.07;4.45;;;8.60;99.90;;;;;;5095732;28;20203;-81
2022/02/02 14:41:19;;;;;;;11.65;3.60;;;8.60;99.90;;;;;;5102112;28;20639;-82
2022/02/02 14:43:55;;;;;;;8.48;3.17;;;8.50;99.90;;;;;;5094664;28;20229;-81
2022/02/02 14:46:27;;;;;;;9.30;2.45;;;8.50;99.90;;;;;;5096868;28;20210;-81
2022/02/02 14:48:59;;;;;;;15.60;3.00;;;8.40;99.90;;;;;;5087474;28;20208;-80
2022/02/02 14:51:37;;;;;;;7.10;2.22;;;8.30;99.90;;;;;;5100264;28;20202;-80
2022/02/02 14:54:14;;;;;;;17.20;3.15;;;8.30;99.90;;;;;;5103910;28;20713;-82
2022/02/02 15:24:35;;;;;;;10.10;3.55;;;8.30;99.90;;;;;;5097571;28;20232;-80
2022/02/02 15:30:11;;;;;;;14.90;4.07;;;8.50;99.90;;;;;;5109323;28;20199;-80
2022/02/02 15:32:42;;;;;;;13.25;3.30;;;8.50;99.90;;;;;;5119546;28;20212;-81
2022/02/02 15:35:10;;;;;;;17.20;4.38;;;8.50;99.90;;;;;;5120225;28;20205;-81
2022/02/02 15:37:43;;;;;;;10.43;4.53;;;8.50;99.90;;;;;;5116427;28;20225;-80
2022/02/02 15:40:14;;;;;;;13.85;2.90;;;8.50;99.90;;;;;;5094552;28;20263;-82
2022/02/02 15:42:55;;;;;;;19.75;4.32;;;8.50;99.90;;;;;;5106845;28;20667;-82
2022/02/02 15:59:22;;;;;;;20.35;4.90;;;8.30;99.90;;;;;;5070871;28;20202;-81
2022/02/02 16:04:39;;;;;;;10.63;2.80;;;8.10;99.90;;;;;;5105442;28;20703;-82
2022/02/02 16:07:09;;;;;;;13.07;4.10;;;8.00;99.90;;;;;;5102117;28;20202;-84
2022/02/02 16:09:49;;;;;;;10.23;4.07;;;8.00;99.90;;;;;;5101622;28;20223;-82
2022/02/02 16:12:21;;;;;;;23.05;4.47;;;7.90;99.90;;;;;;5116587;28;20215;-81
2022/02/02 16:14:58;;;;;;;16.92;4.95;;;7.90;99.90;;;;;;5107684;28;20255;-82
2022/02/02 16:31:37;;;;;;;18.42;3.67;;;7.40;99.90;;;;;;5111915;28;20237;-83
2022/02/02 16:36:56;;;;;;;12.20;3.40;;;7.30;99.90;;;;;;5076737;28;20265;-83
2022/02/02 16:39:24;;;;;;;22.48;3.33;;;7.30;99.90;;;;;;5092206;28;20208;-81
2022/02/02 16:44:37;;;;;;;14.38;3.85;;;7.20;99.90;;;;;;5113037;28;20278;-83
2022/02/02 16:47:07;;;;;;;10.18;2.97;;;7.20;99.90;;;;;;5098095;28;20204;-83
2022/02/02 16:49:34;;;;;;;18.23;4.00;;;7.10;99.90;;;;;;5100205;28;20229;-83
2022/02/02 16:52:02;;;;;;;14.48;5.53;;;7.10;99.90;;;;;;5100302;28;20301;-82
2022/02/02 16:54:33;;;;;;;15.75;6.38;;;7.10;99.90;;;;;;5100091;28;20210;-83
2022/02/02 16:57:18;;;;;;;12.05;4.32;;;7.10;99.90;;;;;;5100472;28;20194;-83
2022/02/02 17:29:59;;;;;;;18.58;5.45;;;6.90;99.90;;;;;;5072712;28;20231;-81
2022/02/02 17:32:35;;;;;;;13.00;4.30;;;6.90;99.90;;;;;;5119380;28;20238;-82
2022/02/02 17:35:23;;;;;;;31.15;4.35;;;6.80;99.90;;;;;;5099161;28;20249;-79
2022/02/02 17:37:58;;;;;;;23.58;5.43;;;6.80;99.90;;;;;;5190672;22;20216;-77
2022/02/02 17:40:39;;;;;;;16.02;4.15;;;6.70;99.90;;;;;;5118472;28;20207;-78
2022/02/02 17:43:22;;;;;;;8.98;4.28;;;6.70;99.90;;;;;;5117893;28;20230;-80
2022/02/02 17:45:57;;;;;;;18.50;4.70;;;6.70;99.90;;;;;;5118791;28;20199;-79
2022/02/02 18:19:01;;;;;;;17.98;4.85;;;6.40;99.90;;;;;;5127477;28;20182;-81
2022/02/02 18:21:30;;;;;;;14.95;5.05;;;6.40;99.90;;;;;;5131611;28;20212;-79
2022/02/02 18:24:05;;;;;;;9.60;4.45;;;6.30;99.90;;;;;;5132759;28;20226;-80
2022/02/02 18:26:37;;;;;;;22.58;4.72;;;6.30;99.90;;;;;;5136056;27;20233;-80
2022/02/02 18:29:10;;;;;;;14.45;4.50;;;6.20;99.90;;;;;;5139239;28;20200;-79
2022/02/02 18:31:50;;;;;;;26.05;4.50;;;6.20;99.90;;;;;;5139199;28;20200;-80
2022/02/02 18:34:27;;;;;;;13.18;3.80;;;6.40;99.90;;;;;;5139050;28;20223;-82
2022/02/02 18:37:07;;;;;;;18.35;5.25;;;6.30;99.90;;;;;;5139225;28;20190;-80
2022/02/02 18:46:25;;;;;;;16.35;4.70;;;6.10;99.90;;;;;;5163136;27;20523;-75
2022/02/02 18:48:59;;;;;;;19.50;5.38;;;6.00;99.90;;;;;;5166373;27;20190;-73
2022/02/02 18:54:21;;;;;;;27.42;6.30;;;5.90;99.90;;;;;;5083713;28;20223;-73
2022/02/02 18:57:06;;;;;;;18.38;6.20;;;5.90;99.90;;;;;;5151745;27;20223;-75
2022/02/02 18:59:51;;;;;;;21.67;9.82;;;5.80;99.90;;;;;;5169372;27;20189;-76
2022/02/02 19:02:40;;;;;;;27.27;8.68;;;5.80;99.90;;;;;;5164871;27;20273;-74
2022/02/02 19:05:26;;;;;;;20.73;7.10;;;5.70;99.90;;;;;;5159648;27;20200;-76
2022/02/02 19:08:12;;;;;;;21.02;8.15;;;5.70;99.90;;;;;;5163295;27;20189;-73
2022/02/02 19:55:24;;;;;;;18.23;5.90;;;5.20;99.90;;;;;;5138949;27;20283;-74
2022/02/02 20:03:53;;;;;;;32.80;7.10;;;5.20;99.90;;;;;;5146473;27;20411;-74
2022/02/02 20:06:25;;;;;;;15.40;6.50;;;5.10;99.90;;;;;;5145254;27;20216;-73
2022/02/02 20:09:23;;;;;;;16.88;6.10;;;5.20;99.90;;;;;;5150554;27;20199;-72
2022/02/02 20:11:57;;;;;;;16.45;7.20;;;5.00;99.90;;;;;;5141689;27;20494;-73
2022/02/02 20:14:24;;;;;;;22.50;6.45;;;5.00;99.90;;;;;;5140799;27;20242;-73
2022/02/02 20:16:50;;;;;;;20.55;5.80;;;5.00;99.90;;;;;;5150628;27;20256;-72
2022/02/02 20:19:19;;;;;;;21.30;6.90;;;5.00;99.90;;;;;;5142137;27;20216;-71
2022/02/02 20:21:51;;;;;;;20.65;4.97;;;5.00;99.90;;;;;;5149285;27;20263;-72
2022/02/02 20:24:22;;;;;;;11.70;5.15;;;5.00;99.90;;;;;;5140224;27;20215;-74
2022/02/02 20:26:50;;;;;;;33.22;6.53;;;5.00;99.90;;;;;;5142706;27;20199;-73
2022/02/02 20:29:18;;;;;;;28.55;6.20;;;5.00;99.90;;;;;;5149688;27;20260;-72
2022/02/02 20:31:45;;;;;;;18.05;5.95;;;4.90;99.90;;;;;;5149600;27;20219;-74
2022/02/02 20:34:13;;;;;;;24.67;7.22;;;4.90;99.90;;;;;;5150982;27;20193;-74
2022/02/02 20:36:40;;;;;;;12.80;4.55;;;4.90;99.90;;;;;;5150749;27;20312;-74
2022/02/02 20:39:17;;;;;;;23.77;5.97;;;4.90;99.90;;;;;;5143670;27;20215;-74
2022/02/02 20:41:46;;;;;;;17.17;4.18;;;4.90;99.90;;;;;;5146352;27;20213;-74
2022/02/02 20:44:21;;;;;;;18.25;5.43;;;4.90;99.90;;;;;;5143716;27;20279;-74
2022/02/02 20:47:15;;;;;;;24.08;5.75;;;4.80;99.90;;;;;;5146009;27;20204;-73
2022/02/02 21:01:16;;;;;;;14.88;4.38;;;4.90;99.90;;;;;;5148370;27;20207;-74
2022/02/02 21:03:53;;;;;;;26.75;6.00;;;4.90;99.90;;;;;;5149224;27;20213;-77
2022/02/02 21:06:25;;;;;;;13.43;4.18;;;4.90;99.90;;;;;;5143003;27;20213;-73
2022/02/02 21:09:16;;;;;;;22.13;6.70;;;5.00;99.90;;;;;;5148659;27;20366;-71
2022/02/02 21:13:39;;;;;;;16.05;4.60;;;5.00;99.90;;;;;;5142243;27;20236;-74